createdAt,value
2023-03-27T00:02:08.629Z,100.00
2023-03-27T00:07:10.549Z,100.00
2023-03-27T00:12:12.158Z,100.00
2023-03-27T00:17:13.771Z,100.00
2023-03-27T00:22:15.745Z,100.00
2023-03-27T00:27:17.339Z,100.00
2023-03-27T00:32:19.118Z,100.00
2023-03-27T00:37:20.848Z,100.00
2023-03-27T00:42:24.223Z,100.00
2023-03-27T00:47:34.353Z,100.00
2023-03-27T00:52:39.536Z,100.00
2023-03-27T00:57:44.542Z,100.00
2023-03-27T01:02:49.283Z,100.00
2023-03-27T01:08:00.447Z,100.00
2023-03-27T01:13:24.351Z,100.00
2023-03-27T01:19:04.642Z,100.00
2023-03-27T01:24:38.832Z,100.00
2023-03-27T01:30:05.892Z,100.00
2023-03-27T01:35:26.051Z,100.00
2023-03-27T01:40:46.276Z,100.00
2023-03-27T01:45:57.457Z,100.00
2023-03-27T01:51:09.817Z,100.00
2023-03-27T01:56:41.759Z,100.00
2023-03-27T02:01:50.786Z,100.00
2023-03-27T02:06:57.514Z,100.00
2023-03-27T02:18:33.330Z,100.00
2023-03-27T02:23:38.313Z,100.00
2023-03-27T02:28:52.824Z,100.00
2023-03-27T02:34:01.448Z,100.00
2023-03-27T02:39:41.099Z,100.00
2023-03-27T02:45:02.909Z,100.00
2023-03-27T02:50:10.817Z,100.00
2023-03-27T02:55:21.847Z,100.00
2023-03-27T03:00:28.347Z,100.00
2023-03-27T03:05:47.044Z,100.00
2023-03-27T03:10:49.142Z,100.00
2023-03-27T03:15:50.756Z,100.00
2023-03-27T03:20:55.276Z,100.00
2023-03-27T03:25:57.174Z,100.00
2023-03-27T03:31:06.027Z,100.00
2023-03-27T03:36:09.115Z,100.00
2023-03-27T03:41:14.130Z,100.00
2023-03-27T03:46:16.106Z,100.00
2023-03-27T03:51:17.885Z,100.00
2023-03-27T03:56:19.647Z,100.00
2023-03-27T04:01:26.174Z,100.00
2023-03-27T04:06:32.597Z,100.00
2023-03-27T04:11:34.769Z,100.00
2023-03-27T04:16:54.844Z,100.00
2023-03-27T04:22:02.559Z,100.00
2023-03-27T04:27:08.337Z,99.07
2023-03-27T04:32:27.109Z,98.73
2023-03-27T04:38:02.731Z,98.29
2023-03-27T04:43:21.905Z,98.53
2023-03-27T04:48:24.574Z,99.10
2023-03-27T04:53:31.094Z,99.21
2023-03-27T04:58:36.591Z,98.48
2023-03-27T05:03:43.871Z,98.11
2023-03-27T05:08:52.858Z,98.19
2023-03-27T05:13:59.889Z,97.54
2023-03-27T05:19:04.002Z,98.34
2023-03-27T05:24:15.499Z,96.89
2023-03-27T05:29:18.978Z,97.00
2023-03-27T05:34:23.616Z,95.82
2023-03-27T05:39:28.904Z,96.19
2023-03-27T05:44:31.101Z,96.59
2023-03-27T05:49:34.245Z,96.05
2023-03-27T05:54:43.994Z,95.71
2023-03-27T05:59:45.922Z,96.41
2023-03-27T06:04:52.744Z,95.20
2023-03-27T06:10:07.620Z,96.93
2023-03-27T06:15:18.366Z,96.23
2023-03-27T06:20:39.030Z,94.53
2023-03-27T06:25:40.862Z,93.49
2023-03-27T06:30:49.950Z,89.91
2023-03-27T06:36:14.728Z,88.70
2023-03-27T06:41:17.526Z,88.54
2023-03-27T06:46:45.375Z,88.61
2023-03-27T06:51:51.330Z,88.41
2023-03-27T06:56:55.779Z,87.01
2023-03-27T07:01:58.117Z,83.98
2023-03-27T07:07:08.836Z,83.14
2023-03-27T07:12:14.885Z,80.80
2023-03-27T07:17:19.294Z,81.07
2023-03-27T07:22:26.784Z,79.19
2023-03-27T07:27:30.446Z,76.60
2023-03-27T07:32:37.931Z,74.16
2023-03-27T07:37:42.906Z,71.01
2023-03-27T07:43:07.183Z,64.38
2023-03-27T07:48:16.314Z,64.23
2023-03-27T07:53:33.236Z,60.90
2023-03-27T07:58:44.555Z,63.49
2023-03-27T08:03:52.916Z,62.53
2023-03-27T08:08:58.646Z,63.54
2023-03-27T08:14:03.853Z,63.45
2023-03-27T08:19:06.631Z,63.02
2023-03-27T08:24:15.773Z,63.19
2023-03-27T08:29:47.118Z,66.43
2023-03-27T08:34:49.854Z,64.81
2023-03-27T08:39:59.976Z,58.06
2023-03-27T08:45:08.935Z,55.93
2023-03-27T08:50:31.411Z,54.80
2023-03-27T08:55:47.401Z,61.86
2023-03-27T09:01:08.790Z,64.13
2023-03-27T09:06:23.402Z,63.31
2023-03-27T09:11:42.495Z,49.60
2023-03-27T09:16:49.551Z,50.53
2023-03-27T09:22:11.488Z,57.62
2023-03-27T09:27:34.234Z,62.88
2023-03-27T09:32:59.553Z,61.60
2023-03-27T09:38:33.253Z,49.54
2023-03-27T09:44:03.630Z,46.36
2023-03-27T09:49:20.141Z,55.43
2023-03-27T09:54:32.599Z,75.07
2023-03-27T09:59:40.425Z,80.85
2023-03-27T10:05:18.736Z,67.22
2023-03-27T10:10:27.886Z,57.32
2023-03-27T10:15:42.669Z,51.83
2023-03-27T10:20:54.301Z,50.55
2023-03-27T10:26:01.666Z,60.05
2023-03-27T10:31:31.741Z,61.14
2023-03-27T10:36:47.062Z,60.46
2023-03-27T10:41:52.468Z,48.94
2023-03-27T10:46:55.297Z,52.69
2023-03-27T10:52:10.834Z,55.48
2023-03-27T10:57:45.983Z,61.96
2023-03-27T11:03:13.822Z,65.99
2023-03-27T11:08:23.569Z,57.64
2023-03-27T11:13:36.511Z,60.42
2023-03-27T11:18:53.286Z,66.94
2023-03-27T11:23:58.289Z,61.42
2023-03-27T11:29:13.965Z,55.35
2023-03-27T11:34:39.940Z,59.23
2023-03-27T11:40:21.210Z,57.20
2023-03-27T11:45:55.272Z,53.27
2023-03-27T11:51:22.144Z,57.99
2023-03-27T11:56:55.696Z,60.11
2023-03-27T12:02:57.109Z,50.49
2023-03-27T12:08:07.135Z,48.37
2023-03-27T12:13:47.754Z,45.37
2023-03-27T12:19:38.213Z,51.33
2023-03-27T12:25:28.409Z,59.42
2023-03-27T12:30:54.272Z,60.17
2023-03-27T12:36:00.721Z,53.51
2023-03-27T12:41:03.032Z,49.91
2023-03-27T12:46:25.201Z,49.00
2023-03-27T12:51:51.300Z,46.77
2023-03-27T12:57:25.031Z,48.01
2023-03-27T13:02:35.828Z,48.69
2023-03-27T13:07:43.986Z,50.77
2023-03-27T13:13:05.131Z,48.19
2023-03-27T13:18:30.404Z,54.42
2023-03-27T13:23:37.076Z,59.90
2023-03-27T13:28:46.541Z,64.40
2023-03-27T13:34:10.840Z,66.79
2023-03-27T13:39:24.873Z,60.96
2023-03-27T13:44:56.821Z,56.99
2023-03-27T13:50:43.019Z,54.80
2023-03-27T13:55:51.720Z,52.13
2023-03-27T14:01:28.397Z,55.65
2023-03-27T14:06:40.208Z,58.93
2023-03-27T14:12:01.560Z,59.80
2023-03-27T14:17:45.237Z,74.01
2023-03-27T14:22:58.016Z,75.99
2023-03-27T14:28:09.300Z,76.33
2023-03-27T14:33:11.322Z,75.23
2023-03-27T14:38:35.140Z,83.54
2023-03-27T14:43:37.121Z,84.92
2023-03-27T14:48:42.512Z,86.72
2023-03-27T14:53:49.596Z,89.29
2023-03-27T14:59:24.171Z,88.86
2023-03-27T15:04:34.143Z,90.65
2023-03-27T15:09:42.853Z,91.22
2023-03-27T15:15:04.865Z,88.04
2023-03-27T15:20:11.228Z,83.67
2023-03-27T15:25:24.551Z,82.09
2023-03-27T15:30:32.072Z,78.82
2023-03-27T15:35:45.125Z,78.02
2023-03-27T15:40:47.773Z,78.08
2023-03-27T15:45:59.121Z,78.11
2023-03-27T15:51:10.520Z,77.65
2023-03-27T15:56:41.304Z,77.54
2023-03-27T16:01:53.361Z,78.93
2023-03-27T16:07:09.605Z,80.25
2023-03-27T16:12:12.294Z,81.24
2023-03-27T16:17:20.639Z,80.37
2023-03-27T16:22:24.118Z,79.92
2023-03-27T16:27:35.622Z,80.08
2023-03-27T16:32:37.233Z,81.09
2023-03-27T16:37:38.847Z,80.44
2023-03-27T16:42:40.664Z,78.58
2023-03-27T16:47:42.333Z,78.73
2023-03-27T16:52:43.975Z,79.50
2023-03-27T16:57:48.802Z,79.66
2023-03-27T17:02:50.452Z,79.45
2023-03-27T17:07:52.071Z,80.17
2023-03-27T17:12:54.776Z,83.44
2023-03-27T17:17:56.438Z,86.36
2023-03-27T17:22:58.131Z,88.44
2023-03-27T17:27:59.750Z,89.38
2023-03-27T17:33:01.449Z,88.66
2023-03-27T17:38:03.641Z,88.84
2023-03-27T17:43:05.428Z,88.13
2023-03-27T17:48:07.365Z,88.22
2023-03-27T17:53:08.988Z,91.33
2023-03-27T17:58:12.349Z,98.27
2023-03-27T18:03:14.160Z,100.00
2023-03-27T18:08:18.166Z,100.00
2023-03-27T18:13:20.557Z,100.00
2023-03-27T18:18:25.849Z,100.00
2023-03-27T18:23:27.527Z,100.00
2023-03-27T18:28:29.139Z,100.00
2023-03-27T18:33:31.291Z,100.00
2023-03-27T18:38:33.053Z,100.00
2023-03-27T18:43:34.771Z,100.00
2023-03-27T18:48:36.571Z,100.00
2023-03-27T18:53:38.223Z,100.00
2023-03-27T18:58:39.903Z,100.00
2023-03-27T19:03:42.499Z,100.00
2023-03-27T19:08:45.442Z,100.00
2023-03-27T19:13:47.080Z,100.00
2023-03-27T19:19:12.177Z,100.00
2023-03-27T19:24:40.896Z,100.00
2023-03-27T19:29:42.522Z,100.00
2023-03-27T19:34:44.727Z,99.81
2023-03-27T19:39:46.393Z,98.26
2023-03-27T19:44:48.002Z,96.52
2023-03-27T19:49:49.639Z,95.96
2023-03-27T19:54:51.277Z,93.90
2023-03-27T19:59:53.226Z,90.88
2023-03-27T20:04:54.880Z,89.65
2023-03-27T20:09:56.493Z,88.29
2023-03-27T20:15:10.608Z,88.84
2023-03-27T20:20:16.783Z,87.92
2023-03-27T20:25:18.561Z,87.30
2023-03-27T20:30:20.398Z,87.40
2023-03-27T20:35:25.148Z,87.84
2023-03-27T20:40:26.982Z,87.78
2023-03-27T20:45:30.880Z,86.99
2023-03-27T20:50:35.166Z,86.54
2023-03-27T20:55:43.832Z,86.38
2023-03-27T21:00:56.090Z,86.42
2023-03-27T21:05:58.612Z,86.24
2023-03-27T21:11:01.641Z,87.17
2023-03-27T21:16:04.346Z,86.81
2023-03-27T21:21:06.381Z,87.97
2023-03-27T21:26:10.723Z,88.29
2023-03-27T21:31:12.563Z,88.86
2023-03-27T21:36:14.378Z,87.88
2023-03-27T21:41:17.145Z,88.21
2023-03-27T21:46:18.829Z,87.59
2023-03-27T21:51:20.572Z,86.86
2023-03-27T21:56:22.214Z,87.19
2023-03-27T22:01:24.425Z,86.40
2023-03-27T22:06:28.855Z,85.84
2023-03-27T22:11:30.507Z,85.97
2023-03-27T22:16:32.109Z,86.06
2023-03-27T22:21:33.818Z,86.08
2023-03-27T22:26:38.656Z,86.88
2023-03-27T22:31:40.365Z,86.81
2023-03-27T22:36:42.009Z,86.23
2023-03-27T22:41:43.633Z,86.48
2023-03-27T22:46:45.308Z,86.67
2023-03-27T22:51:46.952Z,86.51
2023-03-27T22:56:48.568Z,86.31
2023-03-27T23:01:50.340Z,86.47
2023-03-27T23:06:52.191Z,85.22
2023-03-27T23:11:53.805Z,84.71
2023-03-27T23:16:55.683Z,85.11
2023-03-27T23:21:57.422Z,85.35
2023-03-27T23:26:59.006Z,86.18
2023-03-27T23:32:00.714Z,86.19
2023-03-27T23:37:02.418Z,86.46
2023-03-27T23:42:04.110Z,86.91
2023-03-27T23:47:05.975Z,86.62
2023-03-27T23:52:07.594Z,86.76
2023-03-27T23:57:09.369Z,87.18
